Time;durP1;ratioP1;P1;durP2;ratioP2;P2;SDS_P1;SDS_P2;PMS_P1;PMS_P2;Temp;Humidity;BMP_temperature;BMP_pressure;BME280_temperature;BME280_humidity;BME280_pressure;Samples;Min_cycle;Max_cycle;Signal;HPM_P1;HPM_P2
2022/01/14 00:01:57;;;;;;;;;80.60;71.80;21.40;99.90;;;;;;5058069;28;8765;-71
2022/01/14 00:04:24;;;;;;;;;86.40;77.60;21.40;99.90;;;;;;5057674;28;8882;-71
2022/01/14 00:06:51;;;;;;;;;94.40;83.40;21.40;99.90;;;;;;5055906;28;8770;-71
2022/01/14 00:09:18;;;;;;;;;85.00;80.40;21.40;99.90;;;;;;5040034;28;8766;-70
2022/01/14 00:11:49;;;;;;;;;99.20;90.60;21.40;99.90;;;;;;5057885;28;8899;-71
2022/01/14 00:16:43;;;;;;;;;96.00;88.20;21.50;99.90;;;;;;5057089;28;8754;-71
2022/01/14 00:19:10;;;;;;;;;85.40;84.20;21.50;99.90;;;;;;5057719;28;8888;-71
2022/01/14 00:21:39;;;;;;;;;92.20;84.40;21.50;99.90;;;;;;5056889;28;8750;-71
2022/01/14 00:24:11;;;;;;;;;83.20;75.60;21.50;99.90;;;;;;5056015;28;8753;-71
2022/01/14 00:31:42;;;;;;;;;85.80;77.00;21.60;99.90;;;;;;5056380;28;8797;-69
2022/01/14 00:32:26;;;;;;;;;80.40;74.00;21.60;99.90;;;;;;5057246;28;8865;-68
2022/01/14 00:34:52;;;;;;;;;92.40;80.60;21.70;99.90;;;;;;5072130;28;8786;-71
2022/01/14 00:37:19;;;;;;;;;84.80;73.40;21.80;99.90;;;;;;5057237;28;8749;-69
2022/01/14 00:39:47;;;;;;;;;79.40;69.60;21.90;99.90;;;;;;5055621;28;8843;-71
2022/01/14 00:42:14;;;;;;;;;83.60;74.20;21.90;99.90;;;;;;5056838;28;8740;-71
2022/01/14 00:44:41;;;;;;;;;85.20;76.00;21.90;99.90;;;;;;5039064;28;8773;-71
2022/01/14 00:47:08;;;;;;;;;88.00;79.80;21.90;99.90;;;;;;5055038;28;8769;-71
2022/01/14 00:49:34;;;;;;;;;110.40;95.20;21.90;99.90;;;;;;5038494;28;8742;-70
2022/01/14 00:52:04;;;;;;;;;115.20;95.00;21.90;99.90;;;;;;5056139;28;8734;-71
2022/01/14 00:54:31;;;;;;;;;103.40;91.60;21.90;99.90;;;;;;5056368;28;8895;-70
2022/01/14 00:57:25;;;;;;;;;102.80;91.40;22.00;99.90;;;;;;5056684;28;8770;-70
2022/01/14 00:59:48;;;;;;;;;100.60;90.60;22.00;99.90;;;;;;5057046;28;8789;-70
2022/01/14 01:02:15;;;;;;;;;102.80;92.40;22.00;99.90;;;;;;5054715;28;8785;-70
2022/01/14 01:04:42;;;;;;;;;85.80;78.80;22.00;99.90;;;;;;5056089;28;8762;-71
2022/01/14 01:07:09;;;;;;;;;78.20;70.60;22.20;99.90;;;;;;5056643;28;8772;-70
2022/01/14 01:09:37;;;;;;;;;85.20;75.20;22.20;99.90;;;;;;5038108;28;8781;-70
2022/01/14 01:14:40;;;;;;;;;84.00;71.40;22.20;99.90;;;;;;5055905;28;8773;-70
2022/01/14 01:17:07;;;;;;;;;84.40;71.20;22.30;99.90;;;;;;5056614;28;8774;-70
2022/01/14 01:19:34;;;;;;;;;80.80;69.00;22.40;99.90;;;;;;5054701;28;8810;-70
2022/01/14 01:22:00;;;;;;;;;84.40;73.20;22.50;99.90;;;;;;5072288;28;9463;-70
2022/01/14 01:24:27;;;;;;;;;79.20;66.60;22.50;99.90;;;;;;5055997;28;8814;-70
2022/01/14 01:26:55;;;;;;;;;76.60;62.60;22.50;99.90;;;;;;5056380;28;8780;-70
2022/01/14 01:31:54;;;;;;;;;81.00;70.40;22.50;99.90;;;;;;5055883;28;8781;-70
2022/01/14 01:34:23;;;;;;;;;82.20;68.00;22.50;99.90;;;;;;5056213;28;8766;-70
2022/01/14 01:36:51;;;;;;;;;86.60;77.60;22.50;99.90;;;;;;5056548;28;8749;-71
2022/01/14 01:39:20;;;;;;;;;80.60;71.40;22.60;99.90;;;;;;5054924;28;8746;-69
2022/01/14 01:41:48;;;;;;;;;85.80;78.00;22.70;99.90;;;;;;5056529;28;8876;-71
2022/01/14 01:44:16;;;;;;;;;83.80;75.40;22.60;99.90;;;;;;5054142;28;8780;-71
2022/01/14 01:46:46;;;;;;;;;84.60;73.80;22.70;99.90;;;;;;5053299;28;8746;-71
2022/01/14 01:49:14;;;;;;;;;77.80;65.60;22.60;99.90;;;;;;5056758;28;8758;-71
2022/01/14 01:51:43;;;;;;;;;79.20;63.60;22.60;99.90;;;;;;5055681;28;8780;-71
2022/01/14 01:54:09;;;;;;;;;78.20;65.20;22.60;99.90;;;;;;5055528;28;8766;-71
2022/01/14 01:56:36;;;;;;;;;78.80;65.40;22.60;99.90;;;;;;5037819;28;8765;-70
2022/01/14 01:59:03;;;;;;;;;77.40;65.00;22.70;99.90;;;;;;5054893;28;8809;-71
2022/01/14 02:01:32;;;;;;;;;78.60;63.80;22.80;99.90;;;;;;5055896;28;8748;-69
2022/01/14 02:03:59;;;;;;;;;78.00;64.00;23.00;99.90;;;;;;5055571;28;8749;-70
2022/01/14 02:06:26;;;;;;;;;74.80;61.20;23.00;99.90;;;;;;5037692;28;8729;-71
2022/01/14 02:08:52;;;;;;;;;77.60;66.60;23.10;99.90;;;;;;5039530;28;8728;-70
2022/01/14 02:11:19;;;;;;;;;77.40;65.40;23.20;99.90;;;;;;5038414;28;8708;-70
2022/01/14 02:13:48;;;;;;;;;78.40;64.20;23.20;99.90;;;;;;5039338;28;8760;-71
2022/01/14 02:16:19;;;;;;;;;72.80;56.40;23.40;99.90;;;;;;5072045;28;8720;-70
2022/01/14 02:26:51;;;;;;;;;74.20;60.40;23.80;99.90;;;;;;5058987;28;8749;-70
2022/01/14 02:29:18;;;;;;;;;77.80;65.80;23.90;99.90;;;;;;5058224;28;8762;-68
2022/01/14 02:31:45;;;;;;;;;76.80;62.40;23.90;99.90;;;;;;5058087;28;8844;-69
2022/01/14 02:34:12;;;;;;;;;74.40;56.40;23.90;99.90;;;;;;5041995;28;8758;-70
2022/01/14 02:36:46;;;;;;;;;79.40;65.20;24.00;99.90;;;;;;5059166;28;8777;-71
2022/01/14 02:39:14;;;;;;;;;71.60;58.00;24.00;99.90;;;;;;5036538;28;8813;-70
2022/01/14 02:41:42;;;;;;;;;80.80;67.20;24.10;99.90;;;;;;5058058;28;8742;-70
2022/01/14 02:44:10;;;;;;;;;81.60;68.20;24.20;99.90;;;;;;5058898;28;8754;-70
2022/01/14 02:46:41;;;;;;;;;77.80;67.40;24.30;99.90;;;;;;5058924;28;8749;-71
2022/01/14 02:49:08;;;;;;;;;77.40;62.80;24.40;99.90;;;;;;5059091;28;8743;-70
2022/01/14 02:51:35;;;;;;;;;73.60;59.80;24.70;99.90;;;;;;5057605;28;8764;-70
2022/01/14 02:54:12;;;;;;;;;77.40;65.40;24.80;99.90;;;;;;5059081;28;8766;-70
2022/01/14 02:56:39;;;;;;;;;77.40;61.60;24.80;99.90;;;;;;5074124;28;9429;-70
2022/01/14 02:59:05;;;;;;;;;79.00;66.40;24.70;99.90;;;;;;5057422;28;8823;-69
2022/01/14 03:01:32;;;;;;;;;75.40;63.00;24.60;99.90;;;;;;5057335;28;8733;-69
2022/01/14 03:04:00;;;;;;;;;76.60;66.40;24.70;99.90;;;;;;5037580;28;8764;-70
2022/01/14 03:06:27;;;;;;;;;74.80;64.40;24.90;99.90;;;;;;5037909;28;8752;-70
2022/01/14 03:08:54;;;;;;;;;78.40;65.60;25.00;99.90;;;;;;5038803;28;8814;-71
2022/01/14 03:11:30;;;;;;;;;79.80;66.80;25.00;99.90;;;;;;5038263;28;8756;-70
2022/01/14 03:13:58;;;;;;;;;77.60;64.60;25.00;99.90;;;;;;5017445;28;8749;-71
2022/01/14 03:16:25;;;;;;;;;76.40;61.20;25.20;99.90;;;;;;5032483;28;8724;-62
2022/01/14 03:18:54;;;;;;;;;76.40;67.00;25.30;99.90;;;;;;5041207;28;8762;-70
2022/01/14 03:21:29;;;;;;;;;76.60;61.40;25.40;99.90;;;;;;5056970;28;8774;-70
2022/01/14 03:26:50;;;;;;;;;78.40;68.60;25.40;99.90;;;;;;5027248;28;8740;-70
2022/01/14 03:29:17;;;;;;;;;80.00;63.60;25.30;99.90;;;;;;5058285;28;8750;-70
2022/01/14 03:31:44;;;;;;;;;76.00;64.40;25.60;99.90;;;;;;5058036;28;9492;-70
2022/01/14 03:34:11;;;;;;;;;80.80;67.60;25.70;99.90;;;;;;5057751;28;8800;-70
2022/01/14 03:36:38;;;;;;;;;75.60;60.80;25.70;99.90;;;;;;5057878;28;8746;-69
2022/01/14 03:39:04;;;;;;;;;79.20;68.80;25.90;99.90;;;;;;5058066;28;8772;-70
2022/01/14 03:41:31;;;;;;;;;73.20;58.20;26.00;99.90;;;;;;5057727;28;8832;-69
2022/01/14 03:43:58;;;;;;;;;68.00;53.40;26.00;99.90;;;;;;5039657;28;8730;-70
2022/01/14 03:46:25;;;;;;;;;66.80;54.40;26.00;99.90;;;;;;5057564;28;8800;-66
2022/01/14 03:48:54;;;;;;;;;70.40;54.20;25.80;99.90;;;;;;5058331;28;8782;-70
2022/01/14 03:51:22;;;;;;;;;63.50;50.75;25.60;99.90;;;;;;5057418;28;8821;-68
2022/01/14 03:53:49;;;;;;;;;67.25;53.25;25.70;99.90;;;;;;5057096;28;8998;-70
2022/01/14 03:56:18;;;;;;;;;67.50;53.75;26.00;99.90;;;;;;5055998;28;9476;-70
2022/01/14 03:58:44;;;;;;;;;68.25;53.25;26.10;99.90;;;;;;5056215;28;8784;-70
2022/01/14 04:01:11;;;;;;;;;75.60;58.20;26.10;99.90;;;;;;5057819;28;8806;-69
2022/01/14 04:03:39;;;;;;;;;66.75;51.75;26.20;99.90;;;;;;5055752;28;8785;-69
2022/01/14 04:06:06;;;;;;;;;71.60;56.00;26.20;99.90;;;;;;5055747;28;8813;-68
2022/01/14 04:08:33;;;;;;;;;72.60;58.40;26.30;99.90;;;;;;5056081;28;8770;-70
2022/01/14 04:11:01;;;;;;;;;71.80;58.40;26.30;99.90;;;;;;5057437;28;8839;-70
2022/01/14 04:16:13;;;;;;;;;70.80;55.40;26.50;99.90;;;;;;5057649;28;8742;-70
2022/01/14 04:18:40;;;;;;;;;76.60;58.80;26.60;99.90;;;;;;5056013;28;8769;-70
2022/01/14 04:21:06;;;;;;;;;73.60;57.40;26.60;99.90;;;;;;5056714;28;8793;-70
2022/01/14 04:23:33;;;;;;;;;74.60;57.40;26.50;99.90;;;;;;5057077;28;8754;-70
2022/01/14 04:26:00;;;;;;;;;68.60;55.20;26.50;99.90;;;;;;5056096;28;8761;-70
2022/01/14 04:28:29;;;;;;;;;70.00;56.20;26.70;99.90;;;;;;5055302;28;9321;-70
2022/01/14 04:30:57;;;;;;;;;69.40;54.40;26.70;99.90;;;;;;5057412;28;8742;-70
2022/01/14 04:33:30;;;;;;;;;69.20;56.40;26.80;99.90;;;;;;5058217;28;8813;-69
2022/01/14 04:36:00;;;;;;;;;65.40;52.80;26.80;99.90;;;;;;5035268;28;8790;-70
2022/01/14 04:38:28;;;;;;;;;70.20;56.60;27.00;99.90;;;;;;5036520;28;8776;-70
2022/01/14 04:40:55;;;;;;;;;74.80;60.60;26.90;99.90;;;;;;5036506;28;8756;-70
2022/01/14 04:43:21;;;;;;;;;71.00;56.00;26.90;99.90;;;;;;5037549;28;8736;-69
2022/01/14 04:46:12;;;;;;;;;72.00;58.60;27.00;99.90;;;;;;5036787;28;8771;-70
2022/01/14 04:48:39;;;;;;;;;72.80;57.80;27.10;99.90;;;;;;5038134;28;8780;-70
2022/01/14 04:51:07;;;;;;;;;69.40;54.00;27.10;99.90;;;;;;5056848;28;8798;-70
2022/01/14 04:53:34;;;;;;;;;71.80;58.40;27.20;99.90;;;;;;5055842;28;8823;-70
2022/01/14 04:56:01;;;;;;;;;68.20;54.40;27.20;99.90;;;;;;5071579;28;9391;-70
2022/01/14 04:58:28;;;;;;;;;71.20;55.80;27.20;99.90;;;;;;5054896;28;8827;-70
2022/01/14 05:00:55;;;;;;;;;70.40;54.40;27.20;99.90;;;;;;5057348;28;8786;-70
2022/01/14 05:03:22;;;;;;;;;71.50;58.00;27.40;99.90;;;;;;5055040;28;8778;-70
2022/01/14 05:05:54;;;;;;;;;70.25;54.25;27.40;99.90;;;;;;5054277;28;9306;-72
2022/01/14 05:08:25;;;;;;;;;66.75;52.75;27.40;99.90;;;;;;5055937;28;8824;-69
2022/01/14 05:13:23;;;;;;;;;64.20;50.00;27.50;99.70;;;;;;5055712;28;8730;-69
2022/01/14 05:15:51;;;;;;;;;66.80;51.60;27.40;99.70;;;;;;5054584;28;9902;-70
2022/01/14 05:18:18;;;;;;;;;68.00;52.40;27.50;99.40;;;;;;5056118;28;9841;-67
2022/01/14 05:20:44;;;;;;;;;67.20;52.00;27.70;99.30;;;;;;5054787;28;8788;-69
2022/01/14 05:23:11;;;;;;;;;65.80;51.20;27.80;98.70;;;;;;5056571;28;8776;-71
2022/01/14 05:25:38;;;;;;;;;64.20;51.00;27.80;98.80;;;;;;5056435;28;8900;-70
2022/01/14 05:28:05;;;;;;;;;60.50;50.25;28.00;98.90;;;;;;5056608;28;8758;-71
2022/01/14 05:30:31;;;;;;;;;60.25;48.75;28.10;98.40;;;;;;5054927;28;8761;-70
2022/01/14 05:32:58;;;;;;;;;64.00;50.00;28.30;97.10;;;;;;5055067;28;8784;-70
2022/01/14 05:35:26;;;;;;;;;59.60;46.40;28.30;96.80;;;;;;5055798;28;8891;-70
2022/01/14 05:37:53;;;;;;;;;58.00;48.00;28.00;96.60;;;;;;5057313;28;8761;-71
2022/01/14 05:40:21;;;;;;;;;63.00;49.25;28.20;97.30;;;;;;5059525;28;8781;-70
2022/01/14 05:42:48;;;;;;;;;63.75;50.25;28.20;97.20;;;;;;5059203;28;8877;-69
2022/01/14 05:45:15;;;;;;;;;62.75;49.25;28.20;96.50;;;;;;5059076;28;8768;-71
2022/01/14 05:47:42;;;;;;;;;65.00;51.00;28.30;96.30;;;;;;5059184;28;8753;-71
2022/01/14 05:50:13;;;;;;;;;63.50;50.75;28.30;96.30;;;;;;5057838;28;8777;-70
2022/01/14 05:52:40;;;;;;;;;63.00;49.25;28.10;96.70;;;;;;5075337;28;9066;-70
2022/01/14 05:55:08;;;;;;;;;61.75;49.50;27.80;96.30;;;;;;5060639;28;9549;-71
2022/01/14 05:57:37;;;;;;;;;59.75;47.00;27.80;96.90;;;;;;5058960;28;8757;-71
2022/01/14 06:00:19;;;;;;;;;60.00;48.75;28.20;97.10;;;;;;5058602;28;8818;-71
2022/01/14 06:02:47;;;;;;;;;54.80;44.80;28.40;95.70;;;;;;5059545;28;8871;-70
2022/01/14 06:05:14;;;;;;;;;59.75;47.75;28.30;96.30;;;;;;5058488;28;8827;-70
2022/01/14 06:07:40;;;;;;;;;59.75;47.25;28.40;96.00;;;;;;5059197;28;8828;-71
2022/01/14 06:10:07;;;;;;;;;57.25;47.00;28.60;94.40;;;;;;5060191;28;8734;-70
2022/01/14 06:12:34;;;;;;;;;59.75;46.50;28.70;93.90;;;;;;5058229;28;10110;-70
2022/01/14 06:15:01;;;;;;;;;64.00;51.75;28.80;93.60;;;;;;5059896;28;9176;-70
2022/01/14 06:17:28;;;;;;;;;57.00;45.75;28.70;94.00;;;;;;5059502;28;8750;-70
2022/01/14 06:19:54;;;;;;;;;56.25;45.75;28.70;93.40;;;;;;5059459;28;8865;-70
2022/01/14 06:22:21;;;;;;;;;54.75;45.75;28.70;92.70;;;;;;5059230;28;8731;-69
2022/01/14 06:24:49;;;;;;;;;62.50;47.00;28.80;92.40;;;;;;5059665;28;8840;-70
2022/01/14 06:27:16;;;;;;;;;60.50;47.00;28.70;93.00;;;;;;5059691;28;8754;-70
2022/01/14 06:29:43;;;;;;;;;60.00;47.50;28.80;92.90;;;;;;5059182;28;8749;-69
2022/01/14 06:32:09;;;;;;;;;61.50;47.75;28.80;93.30;;;;;;5059677;28;9412;-70
2022/01/14 06:34:36;;;;;;;;;52.75;44.00;28.80;92.60;;;;;;5074654;28;8718;-70
2022/01/14 06:37:03;;;;;;;;;57.75;45.75;28.70;92.50;;;;;;5060408;28;8762;-70
2022/01/14 06:39:29;;;;;;;;;56.50;45.00;28.70;92.20;;;;;;5059221;28;8737;-70
2022/01/14 06:41:56;;;;;;;;;53.00;42.75;28.60;92.90;;;;;;5057864;28;8736;-70
2022/01/14 06:44:23;;;;;;;;;55.75;44.00;28.60;92.20;;;;;;5059252;28;8814;-70
2022/01/14 06:46:50;;;;;;;;;56.00;45.25;28.60;92.50;;;;;;5059443;28;8823;-69
2022/01/14 06:49:16;;;;;;;;;55.50;44.75;28.80;92.10;;;;;;5058616;28;8754;-71
2022/01/14 06:51:43;;;;;;;;;56.50;45.25;28.90;92.80;;;;;;5058568;28;8900;-70
2022/01/14 06:54:10;;;;;;;;;56.00;45.50;28.90;91.70;;;;;;5057584;28;8766;-70
2022/01/14 06:56:38;;;;;;;;;58.25;45.25;29.00;92.10;;;;;;5058733;28;8773;-69
2022/01/14 06:59:06;;;;;;;;;56.00;44.00;29.00;92.20;;;;;;5057624;28;8778;-71
2022/01/14 07:01:32;;;;;;;;;59.25;47.75;29.10;91.40;;;;;;5058605;28;8790;-70
2022/01/14 07:03:59;;;;;;;;;58.50;46.75;29.10;91.90;;;;;;5059237;28;8742;-70
2022/01/14 07:06:26;;;;;;;;;58.25;46.00;29.10;91.60;;;;;;5058161;28;8790;-71
2022/01/14 07:08:52;;;;;;;;;56.75;44.25;29.20;91.50;;;;;;5057510;28;8884;-70
2022/01/14 07:11:19;;;;;;;;;58.50;47.00;29.20;91.40;;;;;;5058620;28;8781;-69
2022/01/14 07:13:46;;;;;;;;;52.00;43.25;29.20;91.90;;;;;;5058751;28;8766;-70
2022/01/14 07:16:13;;;;;;;;;50.50;40.75;29.20;91.30;;;;;;5059012;28;8746;-71
2022/01/14 07:18:39;;;;;;;;;52.50;43.00;29.10;90.90;;;;;;5058086;28;8888;-69
2022/01/14 07:21:06;;;;;;;;;51.50;43.25;29.10;90.50;;;;;;5058282;28;9429;-70
2022/01/14 07:23:33;;;;;;;;;53.75;42.75;29.20;91.00;;;;;;5063981;28;8883;-69
2022/01/14 07:25:59;;;;;;;;;58.75;46.50;29.30;90.80;;;;;;5056878;28;8848;-69
2022/01/14 07:28:26;;;;;;;;;57.25;46.75;29.40;90.80;;;;;;5058088;28;8761;-69
2022/01/14 07:30:53;;;;;;;;;62.75;47.75;29.60;91.30;;;;;;5058985;28;8742;-70
2022/01/14 07:33:19;;;;;;;;;54.25;45.00;29.80;90.70;;;;;;5058231;28;8813;-68
2022/01/14 07:35:46;;;;;;;;;53.50;45.00;29.80;90.80;;;;;;5056822;28;8761;-69
2022/01/14 07:38:13;;;;;;;;;53.75;44.50;29.60;92.00;;;;;;5058024;28;8843;-69
2022/01/14 07:40:39;;;;;;;;;55.00;45.25;29.60;91.30;;;;;;5057836;28;8785;-70
2022/01/14 07:43:06;;;;;;;;;55.25;45.25;29.70;91.20;;;;;;5058632;28;8762;-69
2022/01/14 07:45:33;;;;;;;;;55.00;45.00;29.60;90.30;;;;;;5057970;28;8750;-69
2022/01/14 07:48:00;;;;;;;;;51.75;40.00;29.60;90.60;;;;;;5058059;28;8837;-70
2022/01/14 07:50:26;;;;;;;;;54.75;43.75;29.70;90.80;;;;;;5056516;28;8822;-69
2022/01/14 07:52:53;;;;;;;;;54.75;44.50;29.50;90.70;;;;;;5058147;28;8760;-70
2022/01/14 07:55:22;;;;;;;;;56.25;45.00;29.40;91.20;;;;;;5058083;28;8730;-68
2022/01/14 07:57:49;;;;;;;;;58.25;46.75;29.40;90.50;;;;;;5057909;28;8765;-70
2022/01/14 08:00:16;;;;;;;;;58.50;47.50;29.30;90.70;;;;;;5057254;28;9407;-70
2022/01/14 08:02:43;;;;;;;;;53.75;43.50;29.20;90.80;;;;;;5056516;28;8749;-70
2022/01/14 08:05:10;;;;;;;;;52.25;43.50;29.10;91.30;;;;;;5073245;28;8831;-70
2022/01/14 08:07:44;;;;;;;;;58.75;47.00;29.20;91.30;;;;;;5057080;28;8762;-69
2022/01/14 08:10:11;;;;;;;;;54.50;44.50;29.20;91.00;;;;;;5057998;28;9524;-69
2022/01/14 08:12:38;;;;;;;;;58.25;45.75;29.30;90.70;;;;;;5057205;28;8875;-69
2022/01/14 08:15:05;;;;;;;;;55.00;45.00;29.40;91.10;;;;;;5057703;28;8773;-71
2022/01/14 08:17:32;;;;;;;;;55.75;45.50;29.50;91.20;;;;;;5039824;28;8730;-69
2022/01/14 08:19:59;;;;;;;;;58.50;46.25;29.50;91.20;;;;;;5056028;28;8769;-70
2022/01/14 08:22:28;;;;;;;;;56.75;44.50;29.40;90.70;;;;;;5056921;28;8758;-69
2022/01/14 08:24:56;;;;;;;;;58.25;46.50;29.40;90.40;;;;;;5057851;28;8848;-69
2022/01/14 08:27:23;;;;;;;;;58.00;46.75;29.30;90.80;;;;;;5057092;28;8863;-69
2022/01/14 08:29:50;;;;;;;;;53.25;43.50;29.30;91.30;;;;;;5057125;28;8737;-69
2022/01/14 08:32:17;;;;;;;;;62.75;48.00;29.30;91.80;;;;;;5053988;28;8758;-68
2022/01/14 08:34:43;;;;;;;;;58.50;45.50;29.40;92.00;;;;;;5065376;28;9076;-69
2022/01/14 08:37:10;;;;;;;;;61.50;46.00;29.40;91.90;;;;;;5057726;28;9409;-70
2022/01/14 08:39:39;;;;;;;;;53.00;42.25;29.50;91.40;;;;;;5056859;28;8745;-69
2022/01/14 08:42:08;;;;;;;;;52.75;43.00;29.60;91.30;;;;;;5056794;28;8722;-69
2022/01/14 08:44:38;;;;;;;;;56.50;44.25;29.80;90.80;;;;;;5056660;28;8722;-69
2022/01/14 08:47:09;;;;;;;;;55.50;45.00;29.90;90.30;;;;;;5057118;28;8753;-69
2022/01/14 08:49:40;;;;;;;;;58.25;46.50;29.70;90.50;;;;;;5056376;28;9076;-69
2022/01/14 08:52:07;;;;;;;;;55.75;42.75;29.70;90.00;;;;;;5057541;28;8754;-69
2022/01/14 08:54:34;;;;;;;;;55.25;44.25;29.60;90.40;;;;;;5055097;28;8726;-69
2022/01/14 08:57:04;;;;;;;;;53.75;45.00;29.60;90.80;;;;;;5056602;28;8766;-69
2022/01/14 08:59:31;;;;;;;;;55.25;45.50;29.50;90.50;;;;;;5056569;28;8750;-69
2022/01/14 09:01:58;;;;;;;;;54.75;42.75;29.40;91.40;;;;;;5056906;28;8848;-69
2022/01/14 09:04:24;;;;;;;;;54.75;43.75;29.30;92.00;;;;;;5056677;28;9551;-68
2022/01/14 09:06:51;;;;;;;;;53.50;44.50;29.30;92.40;;;;;;5071678;28;9584;-69
2022/01/14 09:09:18;;;;;;;;;58.25;45.25;29.20;91.50;;;;;;5056419;28;9366;-68
2022/01/14 09:11:44;;;;;;;;;56.75;45.75;29.20;91.80;;;;;;5056071;28;9156;-69
2022/01/14 09:14:11;;;;;;;;;53.25;44.50;29.20;91.50;;;;;;5057132;28;8781;-70
2022/01/14 09:16:40;;;;;;;;;57.50;45.25;29.10;91.50;;;;;;5055138;28;8774;-69
2022/01/14 09:19:07;;;;;;;;;51.50;42.00;29.00;91.70;;;;;;5057210;28;8746;-70
2022/01/14 09:21:34;;;;;;;;;58.50;45.75;29.00;92.20;;;;;;5055043;28;8800;-70
2022/01/14 09:24:03;;;;;;;;;55.75;45.50;29.00;92.10;;;;;;5056413;28;8764;-70
2022/01/14 09:26:34;;;;;;;;;57.50;47.25;29.00;92.40;;;;;;5056549;28;8769;-70
2022/01/14 09:29:01;;;;;;;;;58.00;46.75;28.90;92.20;;;;;;5056452;28;8808;-70
2022/01/14 09:31:28;;;;;;;;;55.50;45.50;28.90;92.90;;;;;;5055929;28;8868;-70
2022/01/14 09:33:55;;;;;;;;;56.75;45.75;28.80;92.60;;;;;;5072038;28;8784;-70
2022/01/14 09:36:22;;;;;;;;;59.00;45.75;28.80;92.40;;;;;;5055994;28;9071;-69
2022/01/14 09:38:48;;;;;;;;;56.50;45.50;28.70;92.70;;;;;;5056371;28;8769;-71
2022/01/14 09:41:17;;;;;;;;;62.75;48.50;28.70;93.50;;;;;;5056333;28;8769;-71
2022/01/14 09:43:44;;;;;;;;;55.25;44.75;28.70;93.20;;;;;;5055032;28;8780;-70
2022/01/14 09:46:11;;;;;;;;;56.25;46.75;28.60;93.60;;;;;;5056672;28;9422;-71
2022/01/14 09:48:38;;;;;;;;;57.75;46.75;28.60;92.90;;;;;;5055866;28;8838;-71
2022/01/14 09:51:05;;;;;;;;;62.25;47.75;28.60;93.40;;;;;;5056334;28;8839;-71
2022/01/14 09:53:32;;;;;;;;;62.60;50.40;28.60;93.00;;;;;;5055044;28;8789;-70
2022/01/14 09:55:59;;;;;;;;;61.25;47.25;28.60;92.90;;;;;;5056205;28;8824;-71
2022/01/14 09:58:27;;;;;;;;;56.75;46.25;28.60;94.20;;;;;;5056018;28;8754;-70
2022/01/14 10:01:20;;;;;;;;;63.33;48.67;28.40;94.50;;;;;;5055785;28;8766;-70
2022/01/14 10:03:55;;;;;;;;;58.00;47.00;28.40;94.50;;;;;;5056199;28;9411;-71
2022/01/14 10:06:43;;;;;;;;;60.25;48.25;28.20;95.10;;;;;;5055639;28;8778;-70
2022/01/14 10:09:13;;;;;;;;;64.00;50.00;28.10;95.30;;;;;;5055894;28;8792;-70
2022/01/14 10:11:44;;;;;;;;;57.75;46.50;27.90;95.60;;;;;;5055905;28;8785;-70
2022/01/14 10:14:15;;;;;;;;;60.75;49.00;27.90;95.40;;;;;;5054885;28;8785;-71
2022/01/14 10:16:41;;;;;;;;;58.50;47.25;28.00;95.10;;;;;;5055685;28;8754;-70
2022/01/14 10:19:25;;;;;;;;;61.25;46.75;28.10;94.90;;;;;;5055299;28;8789;-70
2022/01/14 10:21:52;;;;;;;;;60.00;48.25;28.10;95.30;;;;;;5056589;28;8753;-70
2022/01/14 10:24:19;;;;;;;;;64.25;51.25;28.20;95.20;;;;;;5057221;28;9500;-68
2022/01/14 10:26:48;;;;;;;;;59.50;48.25;28.10;95.20;;;;;;5058089;28;8847;-70
2022/01/14 10:29:15;;;;;;;;;64.50;50.25;28.10;95.00;;;;;;5058001;28;9459;-71
2022/01/14 10:31:43;;;;;;;;;63.25;50.00;27.90;95.20;;;;;;5059128;28;8796;-70
2022/01/14 10:34:14;;;;;;;;;63.75;49.50;27.80;95.00;;;;;;5042288;28;8877;-71
2022/01/14 10:36:43;;;;;;;;;63.75;50.75;27.80;95.50;;;;;;5059473;28;8829;-70
2022/01/14 10:39:20;;;;;;;;;63.00;51.25;27.80;95.90;;;;;;5059710;28;8765;-70
2022/01/14 10:41:47;;;;;;;;;60.75;49.75;27.80;96.40;;;;;;5058092;28;8884;-71
2022/01/14 10:44:43;;;;;;;;;72.20;54.80;27.70;96.70;;;;;;5059269;28;8845;-71
2022/01/14 10:47:14;;;;;;;;;67.60;52.80;27.50;95.80;;;;;;5046698;28;8769;-71
2022/01/14 10:49:46;;;;;;;;;63.40;50.80;27.50;95.90;;;;;;5041905;28;8781;-70
2022/01/14 10:52:20;;;;;;;;;67.20;53.00;27.50;95.80;;;;;;5059693;28;8951;-71
2022/01/14 10:54:49;;;;;;;;;59.20;47.20;27.50;95.90;;;;;;5057838;28;9452;-71
2022/01/14 10:57:20;;;;;;;;;70.80;54.60;27.50;96.10;;;;;;5058898;28;8770;-70
2022/01/14 10:59:48;;;;;;;;;69.40;54.80;27.50;96.00;;;;;;5057631;28;9106;-70
2022/01/14 11:02:35;;;;;;;;;64.80;51.40;27.50;96.50;;;;;;5058769;28;8994;-71
2022/01/14 11:05:13;;;;;;;;;63.80;50.00;27.40;97.70;;;;;;5059056;28;8762;-71
2022/01/14 11:07:40;;;;;;;;;63.00;49.20;27.30;97.00;;;;;;5041417;28;8774;-70
2022/01/14 11:10:15;;;;;;;;;65.40;50.60;27.30;97.40;;;;;;5059318;28;8766;-71
2022/01/14 11:12:42;;;;;;;;;69.80;55.40;27.30;97.80;;;;;;5059014;28;8884;-71
2022/01/14 11:15:12;;;;;;;;;69.60;54.60;27.30;99.90;;;;;;5057442;28;8766;-71
2022/01/14 11:17:40;;;;;;;;;77.20;65.40;27.20;99.90;;;;;;5058437;28;8892;-71
2022/01/14 11:20:09;;;;;;;;;80.40;75.20;27.10;99.90;;;;;;5058463;28;8793;-71
2022/01/14 11:25:20;;;;;;;;;82.00;74.00;27.10;99.70;;;;;;5058035;28;8794;-70
2022/01/14 11:27:54;;;;;;;;;83.40;66.00;27.10;99.70;;;;;;5057306;28;8750;-71
2022/01/14 11:30:21;;;;;;;;;78.60;60.60;27.00;99.40;;;;;;5057273;28;8766;-70
2022/01/14 11:32:58;;;;;;;;;74.80;58.40;27.00;98.70;;;;;;5058517;28;8916;-71
2022/01/14 11:35:26;;;;;;;;;79.40;66.00;27.00;98.60;;;;;;5057471;28;8777;-70
2022/01/14 11:37:52;;;;;;;;;72.20;58.20;27.10;99.20;;;;;;5058344;28;8776;-71
2022/01/14 11:40:19;;;;;;;;;73.00;56.40;27.00;99.30;;;;;;5058554;28;8794;-69
2022/01/14 11:42:59;;;;;;;;;74.40;58.20;27.00;99.70;;;;;;5057964;28;8766;-70
2022/01/14 11:45:45;;;;;;;;;76.00;63.00;27.00;99.90;;;;;;5073541;28;8794;-71
2022/01/14 11:48:49;;;;;;;;;75.20;61.80;26.90;99.90;;;;;;5057918;28;8871;-71
2022/01/14 11:51:17;;;;;;;;;83.60;77.00;26.90;99.90;;;;;;5026279;28;8780;-70
2022/01/14 11:54:10;;;;;;;;;77.00;65.20;26.90;99.90;;;;;;5036716;28;8772;-71
2022/01/14 11:56:37;;;;;;;;;76.20;64.20;26.80;99.90;;;;;;5036216;28;8788;-70
2022/01/14 11:59:21;;;;;;;;;77.80;65.60;26.80;99.90;;;;;;5037688;28;8925;-71
2022/01/14 12:01:57;;;;;;;;;75.00;60.80;26.70;99.90;;;;;;5038090;28;8825;-71
2022/01/14 12:04:44;;;;;;;;;80.40;69.00;26.70;99.90;;;;;;5045306;28;8919;-71
2022/01/14 12:07:11;;;;;;;;;78.80;68.40;26.70;99.90;;;;;;5056973;28;8867;-71
2022/01/14 12:10:09;;;;;;;;;76.40;63.00;26.70;99.90;;;;;;5056505;28;8862;-72
2022/01/14 12:12:36;;;;;;;;;81.00;66.80;26.70;99.90;;;;;;5057435;28;8872;-72
2022/01/14 12:15:04;;;;;;;;;74.80;62.80;26.70;99.90;;;;;;5039996;28;8784;-71
2022/01/14 12:17:35;;;;;;;;;75.80;66.20;26.70;99.90;;;;;;5057238;28;8754;-71
2022/01/14 12:20:12;;;;;;;;;78.80;67.60;26.60;99.90;;;;;;5072202;28;8812;-71
2022/01/14 12:22:39;;;;;;;;;78.40;68.40;26.60;99.90;;;;;;5057539;28;9414;-71
2022/01/14 12:25:06;;;;;;;;;86.40;76.40;26.60;99.90;;;;;;5057833;28;9457;-71
2022/01/14 12:27:42;;;;;;;;;83.60;71.40;26.50;99.90;;;;;;5056728;28;8789;-71
2022/01/14 12:30:11;;;;;;;;;88.00;79.00;26.50;99.90;;;;;;5057040;28;8773;-71
2022/01/14 12:32:42;;;;;;;;;86.80;80.80;26.50;99.90;;;;;;5056817;28;9134;-71
2022/01/14 12:35:13;;;;;;;;;80.40;73.60;26.50;99.90;;;;;;5056979;28;8781;-71
2022/01/14 12:37:50;;;;;;;;;98.20;84.80;26.50;99.90;;;;;;5055591;28;8797;-71
2022/01/14 12:40:37;;;;;;;;;82.80;74.00;26.50;99.90;;;;;;5057750;28;8781;-71
2022/01/14 12:43:06;;;;;;;;;98.40;82.60;26.40;99.90;;;;;;5057839;28;8770;-71
2022/01/14 12:45:38;;;;;;;;;83.40;69.80;26.40;99.90;;;;;;5055198;28;8750;-71
2022/01/14 12:51:08;;;;;;;;;86.00;77.80;26.30;99.90;;;;;;5036314;28;8784;-71
2022/01/14 12:53:35;;;;;;;;;78.80;66.40;26.40;99.90;;;;;;5036990;28;8785;-71
2022/01/14 12:56:17;;;;;;;;;89.60;75.60;26.40;99.90;;;;;;5037091;28;8894;-71
2022/01/14 12:59:06;;;;;;;;;78.80;72.60;26.30;99.90;;;;;;5052295;28;8752;-70
2022/01/14 13:01:37;;;;;;;;;85.60;75.80;26.20;99.90;;;;;;5035260;28;8874;-71
2022/01/14 13:04:08;;;;;;;;;82.60;74.20;26.10;99.90;;;;;;5041042;28;9521;-71
2022/01/14 13:06:48;;;;;;;;;86.00;77.00;26.20;99.90;;;;;;5056353;28;8773;-71
2022/01/14 13:09:19;;;;;;;;;84.80;74.40;26.20;99.90;;;;;;5056810;28;8746;-71
2022/01/14 13:12:06;;;;;;;;;83.00;75.00;26.20;99.90;;;;;;5055820;28;8804;-71
2022/01/14 13:14:34;;;;;;;;;89.00;78.20;26.20;99.90;;;;;;5056589;28;8860;-71
2022/01/14 13:17:03;;;;;;;;;81.00;68.20;26.10;99.90;;;;;;5056597;28;8757;-70
2022/01/14 13:19:30;;;;;;;;;93.40;78.80;26.10;99.90;;;;;;5055985;28;9444;-70